Armonk, New York
Current Conditions -  °F | °C
As of 6:56 AM on Saturday 25 Oct 2014 (Local Time) from KHPN Reporting Station
Clear Clear  
Wind Chill:   Ceiling: Unl
Heat Index:   Visibility: 10mi
Dew Point:   Wind: 6mph
Humidity: 76%   Direction: 290°WNW
Pressure: 29.84"   Gusts: NA
Location:  41.13°N, 73.71°W
Report Text: KHPN 251056Z 29005KT 10SM CLR 07/03 A2984 RMK AO2 SLP107 T00720033
Loading
Personal Weather Stations






























Interactive Weather Map New forecast layout! Learn more

10-Day Weather Forecast

Advertisements
Track Severe Weather on mobile